sensor_id;sensor_type;location;lat;lon;timestamp;P1;durP1;ratioP1;P2;durP2;ratioP2
38851;SDS011;24605;50.092;9.182;2022-10-04T00:00:26;23.73;;;8.00;;
38851;SDS011;24605;50.092;9.182;2022-10-04T00:02:54;32.65;;;7.95;;
38851;SDS011;24605;50.092;9.182;2022-10-04T00:05:26;79.95;;;8.48;;
38851;SDS011;24605;50.092;9.182;2022-10-04T00:07:56;22.17;;;7.80;;
38851;SDS011;24605;50.092;9.182;2022-10-04T00:10:29;106.07;;;9.77;;
38851;SDS011;24605;50.092;9.182;2022-10-04T00:12:57;16.08;;;7.25;;
38851;SDS011;24605;50.092;9.182;2022-10-04T00:15:27;19.55;;;7.57;;
38851;SDS011;24605;50.092;9.182;2022-10-04T00:17:59;96.38;;;9.52;;
38851;SDS011;24605;50.092;9.182;2022-10-04T00:23:27;76.60;;;8.70;;
38851;SDS011;24605;50.092;9.182;2022-10-04T00:26:12;68.30;;;8.43;;
38851;SDS011;24605;50.092;9.182;2022-10-04T00:34:52;24.85;;;7.45;;
38851;SDS011;24605;50.092;9.182;2022-10-04T00:37:20;49.00;;;8.18;;
38851;SDS011;24605;50.092;9.182;2022-10-04T00:39:55;31.30;;;8.40;;
38851;SDS011;24605;50.092;9.182;2022-10-04T00:42:51;41.97;;;8.63;;
38851;SDS011;24605;50.092;9.182;2022-10-04T00:45:25;16.98;;;8.18;;
38851;SDS011;24605;50.092;9.182;2022-10-04T00:48:03;43.75;;;9.07;;
38851;SDS011;24605;50.092;9.182;2022-10-04T00:50:48;86.72;;;9.25;;
38851;SDS011;24605;50.092;9.182;2022-10-04T00:53:22;64.50;;;9.30;;
38851;SDS011;24605;50.092;9.182;2022-10-04T00:56:02;37.97;;;7.78;;
38851;SDS011;24605;50.092;9.182;2022-10-04T00:58:34;24.67;;;8.52;;
38851;SDS011;24605;50.092;9.182;2022-10-04T01:01:10;25.38;;;8.07;;
38851;SDS011;24605;50.092;9.182;2022-10-04T01:03:37;19.08;;;8.13;;
38851;SDS011;24605;50.092;9.182;2022-10-04T01:06:08;17.85;;;8.05;;
38851;SDS011;24605;50.092;9.182;2022-10-04T01:08:38;19.35;;;8.02;;
38851;SDS011;24605;50.092;9.182;2022-10-04T01:11:12;17.20;;;7.78;;
38851;SDS011;24605;50.092;9.182;2022-10-04T01:13:44;21.55;;;8.30;;
38851;SDS011;24605;50.092;9.182;2022-10-04T01:16:16;17.38;;;8.23;;
38851;SDS011;24605;50.092;9.182;2022-10-04T01:18:44;45.80;;;9.60;;
38851;SDS011;24605;50.092;9.182;2022-10-04T01:21:20;16.17;;;7.68;;
38851;SDS011;24605;50.092;9.182;2022-10-04T01:23:53;20.70;;;8.68;;
38851;SDS011;24605;50.092;9.182;2022-10-04T01:26:46;22.23;;;9.00;;
38851;SDS011;24605;50.092;9.182;2022-10-04T01:29:13;23.23;;;9.05;;
38851;SDS011;24605;50.092;9.182;2022-10-04T01:31:42;22.55;;;8.57;;
38851;SDS011;24605;50.092;9.182;2022-10-04T01:34:11;20.15;;;8.10;;
38851;SDS011;24605;50.092;9.182;2022-10-04T01:36:40;21.75;;;8.77;;
38851;SDS011;24605;50.092;9.182;2022-10-04T01:39:09;26.50;;;8.95;;
38851;SDS011;24605;50.092;9.182;2022-10-04T01:41:38;43.78;;;10.30;;
38851;SDS011;24605;50.092;9.182;2022-10-04T01:44:13;28.77;;;9.52;;
38851;SDS011;24605;50.092;9.182;2022-10-04T01:46:44;25.75;;;9.85;;
38851;SDS011;24605;50.092;9.182;2022-10-04T01:49:12;21.17;;;8.82;;
38851;SDS011;24605;50.092;9.182;2022-10-04T01:51:44;22.52;;;8.65;;
38851;SDS011;24605;50.092;9.182;2022-10-04T01:54:20;24.30;;;9.88;;
38851;SDS011;24605;50.092;9.182;2022-10-04T01:56:58;67.15;;;11.68;;
38851;SDS011;24605;50.092;9.182;2022-10-04T01:59:29;25.67;;;9.98;;
38851;SDS011;24605;50.092;9.182;2022-10-04T02:01:59;21.55;;;8.85;;
38851;SDS011;24605;50.092;9.182;2022-10-04T02:04:31;34.78;;;10.38;;
38851;SDS011;24605;50.092;9.182;2022-10-04T02:07:02;24.85;;;9.70;;
38851;SDS011;24605;50.092;9.182;2022-10-04T02:09:38;30.42;;;10.68;;
38851;SDS011;24605;50.092;9.182;2022-10-04T02:12:08;40.25;;;9.57;;
38851;SDS011;24605;50.092;9.182;2022-10-04T02:14:36;53.28;;;10.45;;
38851;SDS011;24605;50.092;9.182;2022-10-04T02:17:08;98.25;;;11.32;;
38851;SDS011;24605;50.092;9.182;2022-10-04T02:19:38;51.17;;;9.85;;
38851;SDS011;24605;50.092;9.182;2022-10-04T02:22:06;22.33;;;9.63;;
38851;SDS011;24605;50.092;9.182;2022-10-04T02:24:36;143.88;;;12.43;;
38851;SDS011;24605;50.092;9.182;2022-10-04T02:27:07;113.82;;;11.65;;
38851;SDS011;24605;50.092;9.182;2022-10-04T02:29:33;84.95;;;10.93;;
38851;SDS011;24605;50.092;9.182;2022-10-04T02:32:00;56.05;;;10.48;;
38851;SDS011;24605;50.092;9.182;2022-10-04T02:34:46;26.77;;;9.27;;
38851;SDS011;24605;50.092;9.182;2022-10-04T02:37:14;54.03;;;9.90;;
38851;SDS011;24605;50.092;9.182;2022-10-04T02:39:42;54.17;;;9.38;;
38851;SDS011;24605;50.092;9.182;2022-10-04T02:42:15;24.13;;;8.88;;
38851;SDS011;24605;50.092;9.182;2022-10-04T02:44:48;47.45;;;9.43;;
38851;SDS011;24605;50.092;9.182;2022-10-04T02:47:21;26.43;;;9.83;;
38851;SDS011;24605;50.092;9.182;2022-10-04T02:49:51;42.50;;;9.23;;
38851;SDS011;24605;50.092;9.182;2022-10-04T02:52:21;92.45;;;12.10;;
38851;SDS011;24605;50.092;9.182;2022-10-04T02:54:56;27.85;;;8.73;;
38851;SDS011;24605;50.092;9.182;2022-10-04T02:57:28;97.90;;;10.77;;
38851;SDS011;24605;50.092;9.182;2022-10-04T03:00:01;34.92;;;8.82;;
38851;SDS011;24605;50.092;9.182;2022-10-04T03:02:34;35.47;;;9.10;;
38851;SDS011;24605;50.092;9.182;2022-10-04T03:05:03;22.42;;;8.13;;
38851;SDS011;24605;50.092;9.182;2022-10-04T03:07:32;28.42;;;9.18;;
38851;SDS011;24605;50.092;9.182;2022-10-04T03:10:02;21.02;;;8.38;;
38851;SDS011;24605;50.092;9.182;2022-10-04T03:12:33;73.07;;;9.50;;
38851;SDS011;24605;50.092;9.182;2022-10-04T03:15:03;105.18;;;9.95;;
38851;SDS011;24605;50.092;9.182;2022-10-04T03:17:32;25.88;;;8.60;;
38851;SDS011;24605;50.092;9.182;2022-10-04T03:20:00;21.67;;;8.07;;
38851;SDS011;24605;50.092;9.182;2022-10-04T03:22:28;24.45;;;8.43;;
38851;SDS011;24605;50.092;9.182;2022-10-04T03:24:55;23.13;;;9.60;;
38851;SDS011;24605;50.092;9.182;2022-10-04T03:27:25;23.75;;;9.50;;
38851;SDS011;24605;50.092;9.182;2022-10-04T03:32:26;26.88;;;8.50;;
38851;SDS011;24605;50.092;9.182;2022-10-04T03:34:54;37.92;;;9.00;;
38851;SDS011;24605;50.092;9.182;2022-10-04T03:37:23;90.72;;;10.98;;
38851;SDS011;24605;50.092;9.182;2022-10-04T03:39:51;49.28;;;10.30;;
38851;SDS011;24605;50.092;9.182;2022-10-04T03:42:21;48.75;;;10.10;;
38851;SDS011;24605;50.092;9.182;2022-10-04T03:44:51;72.70;;;9.98;;
38851;SDS011;24605;50.092;9.182;2022-10-04T03:47:20;39.58;;;10.30;;
38851;SDS011;24605;50.092;9.182;2022-10-04T03:49:50;26.70;;;9.18;;
38851;SDS011;24605;50.092;9.182;2022-10-04T03:52:19;29.05;;;10.88;;
38851;SDS011;24605;50.092;9.182;2022-10-04T03:54:49;160.32;;;15.05;;
38851;SDS011;24605;50.092;9.182;2022-10-04T03:57:17;127.72;;;13.82;;
38851;SDS011;24605;50.092;9.182;2022-10-04T03:59:44;34.22;;;13.82;;
38851;SDS011;24605;50.092;9.182;2022-10-04T04:02:14;23.83;;;12.43;;
38851;SDS011;24605;50.092;9.182;2022-10-04T04:04:46;92.20;;;14.33;;
38851;SDS011;24605;50.092;9.182;2022-10-04T04:07:23;107.53;;;13.27;;
38851;SDS011;24605;50.092;9.182;2022-10-04T04:09:55;80.72;;;11.60;;
38851;SDS011;24605;50.092;9.182;2022-10-04T04:12:30;36.50;;;9.93;;
38851;SDS011;24605;50.092;9.182;2022-10-04T04:15:05;69.32;;;12.68;;
38851;SDS011;24605;50.092;9.182;2022-10-04T04:17:37;147.00;;;15.25;;
38851;SDS011;24605;50.092;9.182;2022-10-04T04:20:12;50.00;;;14.73;;
38851;SDS011;24605;50.092;9.182;2022-10-04T04:22:44;20.92;;;10.02;;
38851;SDS011;24605;50.092;9.182;2022-10-04T04:25:17;73.63;;;12.63;;
38851;SDS011;24605;50.092;9.182;2022-10-04T04:27:47;38.10;;;26.58;;
38851;SDS011;24605;50.092;9.182;2022-10-04T04:30:16;24.25;;;9.07;;
38851;SDS011;24605;50.092;9.182;2022-10-04T04:32:45;26.08;;;9.70;;
38851;SDS011;24605;50.092;9.182;2022-10-04T04:35:22;24.58;;;9.57;;
38851;SDS011;24605;50.092;9.182;2022-10-04T04:38:03;21.73;;;10.23;;
38851;SDS011;24605;50.092;9.182;2022-10-04T04:40:37;20.88;;;8.85;;
38851;SDS011;24605;50.092;9.182;2022-10-04T04:43:04;30.42;;;8.82;;
38851;SDS011;24605;50.092;9.182;2022-10-04T04:45:31;22.63;;;8.45;;
38851;SDS011;24605;50.092;9.182;2022-10-04T04:48:01;30.30;;;8.45;;
38851;SDS011;24605;50.092;9.182;2022-10-04T04:50:29;24.08;;;8.80;;
38851;SDS011;24605;50.092;9.182;2022-10-04T04:52:58;23.40;;;11.63;;
38851;SDS011;24605;50.092;9.182;2022-10-04T04:55:31;24.30;;;10.60;;
38851;SDS011;24605;50.092;9.182;2022-10-04T04:58:02;19.63;;;10.20;;
38851;SDS011;24605;50.092;9.182;2022-10-04T05:00:31;20.90;;;9.95;;
38851;SDS011;24605;50.092;9.182;2022-10-04T05:03:05;20.10;;;8.18;;
38851;SDS011;24605;50.092;9.182;2022-10-04T05:05:32;25.70;;;12.20;;
38851;SDS011;24605;50.092;9.182;2022-10-04T05:08:09;22.65;;;9.55;;
38851;SDS011;24605;50.092;9.182;2022-10-04T05:10:39;23.65;;;8.90;;
38851;SDS011;24605;50.092;9.182;2022-10-04T05:13:08;18.10;;;8.40;;
38851;SDS011;24605;50.092;9.182;2022-10-04T05:15:39;21.52;;;8.88;;
38851;SDS011;24605;50.092;9.182;2022-10-04T05:18:20;19.42;;;8.98;;
38851;SDS011;24605;50.092;9.182;2022-10-04T05:20:53;19.95;;;9.57;;
38851;SDS011;24605;50.092;9.182;2022-10-04T05:23:21;25.60;;;10.20;;
38851;SDS011;24605;50.092;9.182;2022-10-04T05:25:48;20.02;;;8.18;;
38851;SDS011;24605;50.092;9.182;2022-10-04T05:28:16;26.02;;;10.02;;
38851;SDS011;24605;50.092;9.182;2022-10-04T05:30:45;26.38;;;9.70;;
38851;SDS011;24605;50.092;9.182;2022-10-04T05:33:21;18.83;;;9.05;;
38851;SDS011;24605;50.092;9.182;2022-10-04T05:35:58;28.53;;;9.97;;
38851;SDS011;24605;50.092;9.182;2022-10-04T05:38:42;23.83;;;10.75;;
38851;SDS011;24605;50.092;9.182;2022-10-04T05:43:47;25.77;;;9.20;;
38851;SDS011;24605;50.092;9.182;2022-10-04T05:46:24;16.48;;;8.85;;
38851;SDS011;24605;50.092;9.182;2022-10-04T05:48:53;19.90;;;8.48;;
38851;SDS011;24605;50.092;9.182;2022-10-04T05:51:22;18.67;;;8.38;;
38851;SDS011;24605;50.092;9.182;2022-10-04T05:53:50;20.63;;;8.80;;
38851;SDS011;24605;50.092;9.182;2022-10-04T05:56:32;21.95;;;9.50;;
38851;SDS011;24605;50.092;9.182;2022-10-04T05:59:14;22.25;;;8.50;;
38851;SDS011;24605;50.092;9.182;2022-10-04T06:01:51;23.42;;;9.25;;
38851;SDS011;24605;50.092;9.182;2022-10-04T06:04:31;23.30;;;11.05;;
38851;SDS011;24605;50.092;9.182;2022-10-04T06:07:13;23.13;;;9.57;;
38851;SDS011;24605;50.092;9.182;2022-10-04T06:09:55;23.67;;;9.13;;
38851;SDS011;24605;50.092;9.182;2022-10-04T06:12:38;26.85;;;10.70;;
38851;SDS011;24605;50.092;9.182;2022-10-04T06:18:10;20.45;;;7.90;;
38851;SDS011;24605;50.092;9.182;2022-10-04T06:20:57;20.75;;;8.85;;
38851;SDS011;24605;50.092;9.182;2022-10-04T06:23:42;20.75;;;7.93;;
38851;SDS011;24605;50.092;9.182;2022-10-04T06:26:17;20.15;;;8.80;;
38851;SDS011;24605;50.092;9.182;2022-10-04T06:28:46;19.55;;;8.73;;
38851;SDS011;24605;50.092;9.182;2022-10-04T06:31:23;21.48;;;7.85;;
38851;SDS011;24605;50.092;9.182;2022-10-04T06:34:14;22.38;;;8.60;;
38851;SDS011;24605;50.092;9.182;2022-10-04T06:37:06;25.10;;;9.35;;
38851;SDS011;24605;50.092;9.182;2022-10-04T06:39:57;47.17;;;22.67;;
38851;SDS011;24605;50.092;9.182;2022-10-04T06:42:50;37.60;;;20.50;;
38851;SDS011;24605;50.092;9.182;2022-10-04T06:45:35;34.75;;;18.92;;
38851;SDS011;24605;50.092;9.182;2022-10-04T06:48:16;36.50;;;20.27;;
38851;SDS011;24605;50.092;9.182;2022-10-04T06:50:59;37.85;;;19.20;;
38851;SDS011;24605;50.092;9.182;2022-10-04T06:53:36;38.67;;;20.63;;
38851;SDS011;24605;50.092;9.182;2022-10-04T06:56:21;36.65;;;21.88;;
38851;SDS011;24605;50.092;9.182;2022-10-04T06:59:06;57.75;;;27.13;;
38851;SDS011;24605;50.092;9.182;2022-10-04T07:01:45;37.95;;;20.00;;
38851;SDS011;24605;50.092;9.182;2022-10-04T07:04:19;48.40;;;21.90;;
38851;SDS011;24605;50.092;9.182;2022-10-04T07:06:56;36.30;;;18.38;;
38851;SDS011;24605;50.092;9.182;2022-10-04T07:09:47;33.03;;;15.93;;
38851;SDS011;24605;50.092;9.182;2022-10-04T07:12:18;29.83;;;15.35;;
38851;SDS011;24605;50.092;9.182;2022-10-04T07:14:45;29.08;;;13.68;;
38851;SDS011;24605;50.092;9.182;2022-10-04T07:17:18;37.67;;;16.15;;
38851;SDS011;24605;50.092;9.182;2022-10-04T07:19:49;22.98;;;9.85;;
38851;SDS011;24605;50.092;9.182;2022-10-04T07:22:19;17.35;;;8.23;;
38851;SDS011;24605;50.092;9.182;2022-10-04T07:24:55;21.20;;;10.73;;
38851;SDS011;24605;50.092;9.182;2022-10-04T07:27:29;17.25;;;8.10;;
38851;SDS011;24605;50.092;9.182;2022-10-04T07:32:35;25.48;;;8.77;;
38851;SDS011;24605;50.092;9.182;2022-10-04T07:35:04;17.27;;;8.32;;
38851;SDS011;24605;50.092;9.182;2022-10-04T07:37:44;18.38;;;8.02;;
38851;SDS011;24605;50.092;9.182;2022-10-04T07:40:20;18.67;;;8.07;;
38851;SDS011;24605;50.092;9.182;2022-10-04T07:42:50;16.25;;;7.68;;
38851;SDS011;24605;50.092;9.182;2022-10-04T07:45:21;17.20;;;7.28;;
38851;SDS011;24605;50.092;9.182;2022-10-04T07:47:50;16.52;;;7.18;;
38851;SDS011;24605;50.092;9.182;2022-10-04T07:50:28;17.02;;;7.32;;
38851;SDS011;24605;50.092;9.182;2022-10-04T07:53:00;16.52;;;7.60;;
38851;SDS011;24605;50.092;9.182;2022-10-04T07:55:38;20.20;;;7.20;;
38851;SDS011;24605;50.092;9.182;2022-10-04T07:58:13;16.45;;;6.75;;
38851;SDS011;24605;50.092;9.182;2022-10-04T08:00:51;14.20;;;6.50;;
38851;SDS011;24605;50.092;9.182;2022-10-04T08:03:44;17.88;;;7.63;;
38851;SDS011;24605;50.092;9.182;2022-10-04T08:06:17;12.45;;;6.45;;
38851;SDS011;24605;50.092;9.182;2022-10-04T08:11:40;12.93;;;5.55;;
38851;SDS011;24605;50.092;9.182;2022-10-04T08:14:20;11.90;;;5.63;;
38851;SDS011;24605;50.092;9.182;2022-10-04T08:17:04;15.52;;;6.25;;
38851;SDS011;24605;50.092;9.182;2022-10-04T08:22:26;11.60;;;5.93;;
38851;SDS011;24605;50.092;9.182;2022-10-04T08:25:01;12.73;;;5.95;;
38851;SDS011;24605;50.092;9.182;2022-10-04T08:27:42;11.48;;;5.60;;
38851;SDS011;24605;50.092;9.182;2022-10-04T08:30:39;12.60;;;5.45;;
38851;SDS011;24605;50.092;9.182;2022-10-04T08:33:20;11.40;;;5.40;;
38851;SDS011;24605;50.092;9.182;2022-10-04T08:35:59;12.40;;;5.90;;
38851;SDS011;24605;50.092;9.182;2022-10-04T08:38:41;17.55;;;9.30;;
38851;SDS011;24605;50.092;9.182;2022-10-04T08:41:26;10.93;;;4.82;;
38851;SDS011;24605;50.092;9.182;2022-10-04T08:53:11;9.80;;;3.70;;
38851;SDS011;24605;50.092;9.182;2022-10-04T08:59:06;11.23;;;3.80;;
38851;SDS011;24605;50.092;9.182;2022-10-04T09:01:54;8.52;;;3.47;;
38851;SDS011;24605;50.092;9.182;2022-10-04T09:04:40;9.60;;;3.55;;
38851;SDS011;24605;50.092;9.182;2022-10-04T09:10:35;15.73;;;3.78;;
38851;SDS011;24605;50.092;9.182;2022-10-04T09:13:15;7.70;;;3.13;;
38851;SDS011;24605;50.092;9.182;2022-10-04T09:16:15;9.52;;;2.90;;
38851;SDS011;24605;50.092;9.182;2022-10-04T09:19:00;8.68;;;3.10;;
38851;SDS011;24605;50.092;9.182;2022-10-04T09:22:00;10.93;;;2.67;;
38851;SDS011;24605;50.092;9.182;2022-10-04T09:24:52;8.13;;;2.58;;
38851;SDS011;24605;50.092;9.182;2022-10-04T09:27:46;6.75;;;2.35;;
38851;SDS011;24605;50.092;9.182;2022-10-04T09:30:32;6.53;;;2.28;;
38851;SDS011;24605;50.092;9.182;2022-10-04T09:36:20;9.45;;;2.53;;
38851;SDS011;24605;50.092;9.182;2022-10-04T09:39:07;6.25;;;2.38;;
38851;SDS011;24605;50.092;9.182;2022-10-04T09:41:58;9.60;;;2.50;;
38851;SDS011;24605;50.092;9.182;2022-10-04T09:44:56;8.52;;;2.10;;
38851;SDS011;24605;50.092;9.182;2022-10-04T09:47:55;8.68;;;2.38;;
38851;SDS011;24605;50.092;9.182;2022-10-04T09:54:08;14.15;;;6.05;;
38851;SDS011;24605;50.092;9.182;2022-10-04T09:57:07;11.60;;;3.97;;
38851;SDS011;24605;50.092;9.182;2022-10-04T09:59:49;7.53;;;2.75;;
38851;SDS011;24605;50.092;9.182;2022-10-04T10:08:35;5.70;;;2.00;;
38851;SDS011;24605;50.092;9.182;2022-10-04T10:11:14;6.90;;;2.17;;
38851;SDS011;24605;50.092;9.182;2022-10-04T10:14:23;10.65;;;3.05;;
38851;SDS011;24605;50.092;9.182;2022-10-04T10:17:12;7.15;;;2.25;;
38851;SDS011;24605;50.092;9.182;2022-10-04T10:19:50;8.45;;;2.40;;
38851;SDS011;24605;50.092;9.182;2022-10-04T10:25:26;7.78;;;2.45;;
38851;SDS011;24605;50.092;9.182;2022-10-04T10:28:20;7.03;;;2.83;;
38851;SDS011;24605;50.092;9.182;2022-10-04T10:31:10;7.75;;;2.60;;
38851;SDS011;24605;50.092;9.182;2022-10-04T10:34:02;6.20;;;2.67;;
38851;SDS011;24605;50.092;9.182;2022-10-04T10:36:56;5.28;;;2.08;;
38851;SDS011;24605;50.092;9.182;2022-10-04T10:39:41;5.88;;;2.45;;
38851;SDS011;24605;50.092;9.182;2022-10-04T10:42:33;6.10;;;2.53;;
38851;SDS011;24605;50.092;9.182;2022-10-04T10:48:37;7.30;;;2.90;;
38851;SDS011;24605;50.092;9.182;2022-10-04T10:51:16;9.38;;;3.03;;
38851;SDS011;24605;50.092;9.182;2022-10-04T10:57:04;7.50;;;2.53;;
38851;SDS011;24605;50.092;9.182;2022-10-04T10:59:52;7.85;;;2.35;;
38851;SDS011;24605;50.092;9.182;2022-10-04T11:02:52;10.07;;;2.60;;
38851;SDS011;24605;50.092;9.182;2022-10-04T11:09:08;6.72;;;2.60;;
38851;SDS011;24605;50.092;9.182;2022-10-04T11:14:54;7.32;;;2.72;;
38851;SDS011;24605;50.092;9.182;2022-10-04T11:17:56;6.03;;;2.45;;
38851;SDS011;24605;50.092;9.182;2022-10-04T11:23:50;9.82;;;2.60;;
38851;SDS011;24605;50.092;9.182;2022-10-04T11:26:49;5.88;;;2.55;;
38851;SDS011;24605;50.092;9.182;2022-10-04T11:32:45;10.23;;;3.50;;
38851;SDS011;24605;50.092;9.182;2022-10-04T11:35:37;7.53;;;2.88;;
38851;SDS011;24605;50.092;9.182;2022-10-04T11:38:22;6.03;;;2.55;;
38851;SDS011;24605;50.092;9.182;2022-10-04T11:41:06;6.93;;;2.83;;
38851;SDS011;24605;50.092;9.182;2022-10-04T11:46:54;7.78;;;2.70;;
38851;SDS011;24605;50.092;9.182;2022-10-04T11:49:31;6.93;;;2.80;;
38851;SDS011;24605;50.092;9.182;2022-10-04T11:52:24;7.15;;;2.45;;
38851;SDS011;24605;50.092;9.182;2022-10-04T11:58:32;7.25;;;2.53;;
38851;SDS011;24605;50.092;9.182;2022-10-04T12:04:20;9.02;;;2.33;;
38851;SDS011;24605;50.092;9.182;2022-10-04T12:07:18;7.22;;;2.70;;
38851;SDS011;24605;50.092;9.182;2022-10-04T12:09:57;8.10;;;2.38;;
38851;SDS011;24605;50.092;9.182;2022-10-04T12:15:31;9.63;;;2.92;;
38851;SDS011;24605;50.092;9.182;2022-10-04T12:18:12;6.40;;;2.20;;
38851;SDS011;24605;50.092;9.182;2022-10-04T12:21:12;6.47;;;2.40;;
38851;SDS011;24605;50.092;9.182;2022-10-04T12:23:59;8.40;;;2.20;;
38851;SDS011;24605;50.092;9.182;2022-10-04T12:26:39;7.15;;;2.40;;
38851;SDS011;24605;50.092;9.182;2022-10-04T12:29:57;6.03;;;2.25;;
38851;SDS011;24605;50.092;9.182;2022-10-04T12:32:31;7.80;;;2.50;;
38851;SDS011;24605;50.092;9.182;2022-10-04T12:35:04;7.07;;;2.15;;
38851;SDS011;24605;50.092;9.182;2022-10-04T12:37:46;6.88;;;2.13;;
38851;SDS011;24605;50.092;9.182;2022-10-04T12:40:35;6.30;;;2.33;;
38851;SDS011;24605;50.092;9.182;2022-10-04T12:43:11;6.40;;;2.03;;
38851;SDS011;24605;50.092;9.182;2022-10-04T12:45:50;5.65;;;2.00;;
38851;SDS011;24605;50.092;9.182;2022-10-04T12:48:26;6.22;;;1.83;;
38851;SDS011;24605;50.092;9.182;2022-10-04T12:51:06;5.03;;;2.20;;
38851;SDS011;24605;50.092;9.182;2022-10-04T12:53:48;4.13;;;1.77;;
38851;SDS011;24605;50.092;9.182;2022-10-04T12:56:27;7.63;;;2.00;;
38851;SDS011;24605;50.092;9.182;2022-10-04T12:59:16;10.50;;;2.40;;
38851;SDS011;24605;50.092;9.182;2022-10-04T13:01:58;8.13;;;3.22;;
38851;SDS011;24605;50.092;9.182;2022-10-04T13:04:35;6.10;;;2.20;;
38851;SDS011;24605;50.092;9.182;2022-10-04T13:07:09;4.32;;;1.90;;
38851;SDS011;24605;50.092;9.182;2022-10-04T13:09:52;6.22;;;2.53;;
38851;SDS011;24605;50.092;9.182;2022-10-04T13:12:30;5.57;;;2.00;;
38851;SDS011;24605;50.092;9.182;2022-10-04T13:15:08;7.93;;;3.25;;
38851;SDS011;24605;50.092;9.182;2022-10-04T13:17:48;7.90;;;2.25;;
38851;SDS011;24605;50.092;9.182;2022-10-04T13:23:16;7.57;;;3.03;;
38851;SDS011;24605;50.092;9.182;2022-10-04T13:25:59;5.45;;;2.58;;
38851;SDS011;24605;50.092;9.182;2022-10-04T13:28:39;5.60;;;2.45;;
38851;SDS011;24605;50.092;9.182;2022-10-04T13:31:14;6.88;;;2.15;;
38851;SDS011;24605;50.092;9.182;2022-10-04T13:33:49;5.30;;;2.38;;
38851;SDS011;24605;50.092;9.182;2022-10-04T13:36:23;4.28;;;1.85;;
38851;SDS011;24605;50.092;9.182;2022-10-04T13:42:03;7.65;;;2.10;;
38851;SDS011;24605;50.092;9.182;2022-10-04T13:44:44;6.57;;;2.25;;
38851;SDS011;24605;50.092;9.182;2022-10-04T13:47:24;4.32;;;1.95;;
38851;SDS011;24605;50.092;9.182;2022-10-04T13:50:21;4.68;;;2.00;;
38851;SDS011;24605;50.092;9.182;2022-10-04T13:53:00;5.03;;;1.67;;
38851;SDS011;24605;50.092;9.182;2022-10-04T13:55:56;5.53;;;1.95;;
38851;SDS011;24605;50.092;9.182;2022-10-04T13:58:48;5.03;;;1.90;;
38851;SDS011;24605;50.092;9.182;2022-10-04T14:01:29;3.80;;;1.60;;
38851;SDS011;24605;50.092;9.182;2022-10-04T14:04:12;6.07;;;2.10;;
38851;SDS011;24605;50.092;9.182;2022-10-04T14:09:50;5.63;;;1.90;;
38851;SDS011;24605;50.092;9.182;2022-10-04T14:15:31;3.97;;;2.08;;
38851;SDS011;24605;50.092;9.182;2022-10-04T14:21:32;4.95;;;1.65;;
38851;SDS011;24605;50.092;9.182;2022-10-04T14:24:15;3.60;;;1.77;;
38851;SDS011;24605;50.092;9.182;2022-10-04T14:30:14;6.82;;;2.15;;
38851;SDS011;24605;50.092;9.182;2022-10-04T14:36:00;5.65;;;2.17;;
38851;SDS011;24605;50.092;9.182;2022-10-04T14:38:54;4.20;;;1.92;;
38851;SDS011;24605;50.092;9.182;2022-10-04T14:41:50;4.40;;;1.95;;
38851;SDS011;24605;50.092;9.182;2022-10-04T14:44:42;6.03;;;1.70;;
38851;SDS011;24605;50.092;9.182;2022-10-04T14:47:32;4.22;;;1.67;;
38851;SDS011;24605;50.092;9.182;2022-10-04T14:50:26;3.92;;;1.50;;
38851;SDS011;24605;50.092;9.182;2022-10-04T14:53:02;6.03;;;1.70;;
38851;SDS011;24605;50.092;9.182;2022-10-04T14:58:49;4.80;;;1.67;;
38851;SDS011;24605;50.092;9.182;2022-10-04T15:01:24;4.88;;;1.60;;
38851;SDS011;24605;50.092;9.182;2022-10-04T15:06:50;5.80;;;1.30;;
38851;SDS011;24605;50.092;9.182;2022-10-04T15:09:25;3.42;;;1.52;;
38851;SDS011;24605;50.092;9.182;2022-10-04T15:15:22;2.67;;;1.30;;
38851;SDS011;24605;50.092;9.182;2022-10-04T15:17:58;4.93;;;1.52;;
38851;SDS011;24605;50.092;9.182;2022-10-04T15:20:29;5.10;;;1.58;;
38851;SDS011;24605;50.092;9.182;2022-10-04T15:23:14;3.35;;;1.27;;
38851;SDS011;24605;50.092;9.182;2022-10-04T15:25:46;4.83;;;1.70;;
38851;SDS011;24605;50.092;9.182;2022-10-04T15:28:27;4.43;;;1.60;;
38851;SDS011;24605;50.092;9.182;2022-10-04T15:31:17;6.97;;;2.30;;
38851;SDS011;24605;50.092;9.182;2022-10-04T15:33:54;8.85;;;2.47;;
38851;SDS011;24605;50.092;9.182;2022-10-04T15:36:45;7.55;;;3.47;;
38851;SDS011;24605;50.092;9.182;2022-10-04T15:39:48;4.13;;;2.17;;
38851;SDS011;24605;50.092;9.182;2022-10-04T15:42:31;4.68;;;1.95;;
38851;SDS011;24605;50.092;9.182;2022-10-04T15:47:56;5.75;;;2.00;;
38851;SDS011;24605;50.092;9.182;2022-10-04T15:50:35;4.47;;;1.75;;
38851;SDS011;24605;50.092;9.182;2022-10-04T15:53:14;5.88;;;2.42;;
38851;SDS011;24605;50.092;9.182;2022-10-04T15:55:52;4.55;;;1.90;;
38851;SDS011;24605;50.092;9.182;2022-10-04T15:58:30;4.07;;;1.83;;
38851;SDS011;24605;50.092;9.182;2022-10-04T16:01:18;5.17;;;2.23;;
38851;SDS011;24605;50.092;9.182;2022-10-04T16:04:11;5.80;;;2.50;;
38851;SDS011;24605;50.092;9.182;2022-10-04T16:06:51;5.60;;;2.30;;
38851;SDS011;24605;50.092;9.182;2022-10-04T16:09:25;5.32;;;2.00;;
38851;SDS011;24605;50.092;9.182;2022-10-04T16:12:07;6.93;;;2.05;;
38851;SDS011;24605;50.092;9.182;2022-10-04T16:15:00;7.43;;;2.05;;
38851;SDS011;24605;50.092;9.182;2022-10-04T16:17:47;6.53;;;2.03;;
38851;SDS011;24605;50.092;9.182;2022-10-04T16:23:23;4.72;;;2.20;;
38851;SDS011;24605;50.092;9.182;2022-10-04T16:25:53;5.38;;;2.20;;
38851;SDS011;24605;50.092;9.182;2022-10-04T16:28:21;4.50;;;2.05;;
38851;SDS011;24605;50.092;9.182;2022-10-04T16:31:13;5.68;;;2.10;;
38851;SDS011;24605;50.092;9.182;2022-10-04T16:33:50;5.65;;;2.13;;
38851;SDS011;24605;50.092;9.182;2022-10-04T16:36:22;4.07;;;2.28;;
38851;SDS011;24605;50.092;9.182;2022-10-04T16:38:56;8.35;;;2.63;;
38851;SDS011;24605;50.092;9.182;2022-10-04T16:41:44;6.40;;;2.33;;
38851;SDS011;24605;50.092;9.182;2022-10-04T16:44:26;5.55;;;2.00;;
38851;SDS011;24605;50.092;9.182;2022-10-04T16:46:59;4.82;;;2.20;;
38851;SDS011;24605;50.092;9.182;2022-10-04T16:49:30;6.57;;;2.25;;
38851;SDS011;24605;50.092;9.182;2022-10-04T16:57:28;4.75;;;2.00;;
38851;SDS011;24605;50.092;9.182;2022-10-04T17:03:15;5.90;;;2.40;;
38851;SDS011;24605;50.092;9.182;2022-10-04T17:05:58;5.25;;;2.35;;
38851;SDS011;24605;50.092;9.182;2022-10-04T17:08:59;6.43;;;2.17;;
38851;SDS011;24605;50.092;9.182;2022-10-04T17:11:43;7.07;;;2.25;;
38851;SDS011;24605;50.092;9.182;2022-10-04T17:14:45;10.73;;;5.28;;
38851;SDS011;24605;50.092;9.182;2022-10-04T17:17:27;6.88;;;2.50;;
38851;SDS011;24605;50.092;9.182;2022-10-04T17:20:11;7.72;;;2.35;;
38851;SDS011;24605;50.092;9.182;2022-10-04T17:22:48;5.75;;;2.65;;
38851;SDS011;24605;50.092;9.182;2022-10-04T17:25:32;7.10;;;2.58;;
38851;SDS011;24605;50.092;9.182;2022-10-04T17:28:13;6.50;;;2.92;;
38851;SDS011;24605;50.092;9.182;2022-10-04T17:30:49;8.38;;;2.95;;
38851;SDS011;24605;50.092;9.182;2022-10-04T17:33:26;7.47;;;4.63;;
38851;SDS011;24605;50.092;9.182;2022-10-04T17:36:16;5.57;;;3.10;;
38851;SDS011;24605;50.092;9.182;2022-10-04T17:38:54;9.15;;;2.45;;
38851;SDS011;24605;50.092;9.182;2022-10-04T17:41:43;11.57;;;3.00;;
38851;SDS011;24605;50.092;9.182;2022-10-04T17:44:32;10.68;;;3.15;;
38851;SDS011;24605;50.092;9.182;2022-10-04T17:47:10;6.70;;;2.55;;
38851;SDS011;24605;50.092;9.182;2022-10-04T17:49:44;7.78;;;3.00;;
38851;SDS011;24605;50.092;9.182;2022-10-04T17:52:42;5.95;;;2.67;;
38851;SDS011;24605;50.092;9.182;2022-10-04T17:55:32;5.53;;;2.88;;
38851;SDS011;24605;50.092;9.182;2022-10-04T17:58:10;8.60;;;3.00;;